EGPI/ILY METAR and TAF weather

Enter ICAO airport designator
Station Type Date Time Source
EGPI METAR 2020/01/28 04:50 UTC NOAA

EGPI 280450Z AUTO 23021KT 9999 NCD 04/02 Q0984


Station Type Date Time Source
EGPI Decoded METAR 2020/01/28 04:50 UTC NOAA

Islay, United Kingdom (EGPI) 55-40-55N 006-15-24W
Jan 27, 2020 - 11:50 PM EST / 2020.01.28 0450 UTC
Wind: from the SW (230 degrees) at 24 MPH (21 KT):0
Visibility: greater than 7 mile(s):0
Temperature: 39 F (4 C)
Dew Point: 35 F (2 C)
Relative Humidity: 86%
Pressure (altimeter): 29.06 in. Hg (0984 hPa)
ob: EGPI 280450Z AUTO 23021KT 9999 NCD 04/02 Q0984
cycle: 5

Station Type Date Time Source
EGPI TAF UTC NOAA

Error!

Example: see airport list